Time;durP1;ratioP1;P1;durP2;ratioP2;P2;SDS_P1;SDS_P2;PMS_P1;PMS_P2;Temp;Humidity;BMP_temperature;BMP_pressure;BME280_temperature;BME280_humidity;BME280_pressure;Samples;Min_cycle;Max_cycle;Signal;HPM_P1;HPM_P2
2023/07/09 00:00:18;;;;;;;805.13;422.90;;;;;;;;;;5064511;28;20043;-52
2023/07/09 00:02:44;;;;;;;802.65;403.20;;;;;;;;;;5064475;28;20032;-53
2023/07/09 00:05:14;;;;;;;805.00;421.13;;;;;;;;;;5064948;28;20062;-52
2023/07/09 00:07:39;;;;;;;;;;;;;;;;;;5065028;28;20032;-54
2023/07/09 00:10:12;;;;;;;793.15;394.67;;;;;;;;;;5064458;28;20259;-55
2023/07/09 00:12:37;;;;;;;805.05;407.42;;;;;;;;;;5064505;28;20028;-50
2023/07/09 00:15:03;;;;;;;805.90;414.90;;;;;;;;;;5064311;28;20043;-53
2023/07/09 00:17:30;;;;;;;808.97;425.67;;;;;;;;;;5064728;28;20035;-51
2023/07/09 00:19:56;;;;;;;814.13;427.48;;;;;;;;;;5063373;28;20468;-50
2023/07/09 00:22:21;;;;;;;806.80;422.45;;;;;;;;;;5063062;28;20020;-51
2023/07/09 00:24:50;;;;;;;806.28;425.20;;;;;;;;;;5044104;28;20029;-53
2023/07/09 00:27:16;;;;;;;801.60;412.30;;;;;;;;;;5063306;28;20024;-58
2023/07/09 00:29:42;;;;;;;806.55;419.52;;;;;;;;;;5063374;28;20025;-52
2023/07/09 00:32:15;;;;;;;803.65;409.65;;;;;;;;;;5063587;28;20020;-49
2023/07/09 00:34:41;;;;;;;810.25;435.88;;;;;;;;;;5064047;28;20371;-53
2023/07/09 00:37:11;;;;;;;807.90;422.17;;;;;;;;;;5063860;28;20484;-53
2023/07/09 00:39:36;;;;;;;803.80;403.63;;;;;;;;;;5063703;28;20082;-49
2023/07/09 00:42:02;;;;;;;807.47;415.63;;;;;;;;;;5028119;28;20472;-51
2023/07/09 00:44:31;;;;;;;814.95;429.23;;;;;;;;;;5063743;28;20411;-54
2023/07/09 00:47:00;;;;;;;809.30;415.58;;;;;;;;;;5063995;28;20476;-49
2023/07/09 00:49:33;;;;;;;810.88;412.88;;;;;;;;;;5048631;28;20361;-51
2023/07/09 00:52:02;;;;;;;811.75;426.52;;;;;;;;;;5083069;28;20119;-48
2023/07/09 00:54:37;;;;;;;797.50;388.88;;;;;;;;;;5076256;28;20039;-54
2023/07/09 00:57:08;;;;;;;809.05;418.85;;;;;;;;;;5064283;28;20032;-48
2023/07/09 00:59:33;;;;;;;804.38;404.67;;;;;;;;;;5063810;28;20551;-50
2023/07/09 01:02:00;;;;;;;805.03;409.40;;;;;;;;;;5063726;28;20112;-54
2023/07/09 01:04:26;;;;;;;810.75;406.15;;;;;;;;;;5064161;28;20052;-51
2023/07/09 01:06:52;;;;;;;800.63;392.20;;;;;;;;;;5064264;28;20028;-50
2023/07/09 01:09:18;;;;;;;794.80;385.35;;;;;;;;;;5063822;28;20325;-54
2023/07/09 01:11:43;;;;;;;792.33;391.52;;;;;;;;;;5063294;28;20047;-55
2023/07/09 01:14:10;;;;;;;796.35;392.15;;;;;;;;;;5063718;28;20571;-49
2023/07/09 01:16:40;;;;;;;794.15;390.33;;;;;;;;;;5063709;28;20040;-50
2023/07/09 01:19:06;;;;;;;791.88;383.58;;;;;;;;;;5063923;28;20020;-53
2023/07/09 01:21:32;;;;;;;783.85;368.88;;;;;;;;;;5063888;28;20448;-54
2023/07/09 01:23:58;;;;;;;795.20;392.67;;;;;;;;;;5063629;28;20032;-53
2023/07/09 01:26:25;;;;;;;798.10;402.80;;;;;;;;;;5063761;28;20494;-53
2023/07/09 01:28:50;;;;;;;797.45;395.77;;;;;;;;;;5063710;28;20400;-51
2023/07/09 01:31:16;;;;;;;794.08;387.85;;;;;;;;;;5063804;28;20330;-53
2023/07/09 01:33:44;;;;;;;800.70;391.88;;;;;;;;;;5067459;28;20070;-53
2023/07/09 01:36:10;;;;;;;803.22;390.27;;;;;;;;;;5067683;28;20421;-53
2023/07/09 01:38:35;;;;;;;794.78;377.45;;;;;;;;;;5067784;28;20036;-49
2023/07/09 01:41:01;;;;;;;799.08;389.45;;;;;;;;;;5067312;28;20089;-50
2023/07/09 01:43:27;;;;;;;799.08;390.42;;;;;;;;;;5067220;28;20492;-50
2023/07/09 01:45:53;;;;;;;798.05;380.63;;;;;;;;;;5067095;28;20425;-52
2023/07/09 01:48:20;;;;;;;795.38;381.38;;;;;;;;;;5067369;28;20315;-52
2023/07/09 01:50:46;;;;;;;802.25;395.77;;;;;;;;;;5067127;28;20392;-52
2023/07/09 01:53:12;;;;;;;797.05;382.73;;;;;;;;;;5067131;28;20541;-50
2023/07/09 01:55:38;;;;;;;791.28;377.95;;;;;;;;;;5067284;28;20384;-52
2023/07/09 01:58:07;;;;;;;776.53;362.05;;;;;;;;;;5048936;28;20020;-53
2023/07/09 02:00:34;;;;;;;781.70;355.83;;;;;;;;;;5067412;28;20371;-49
2023/07/09 02:03:01;;;;;;;780.33;361.30;;;;;;;;;;5066415;28;20444;-49
2023/07/09 02:05:27;;;;;;;784.25;371.35;;;;;;;;;;5065883;28;20107;-49
2023/07/09 02:07:52;;;;;;;779.42;362.42;;;;;;;;;;5066493;28;20583;-52
2023/07/09 02:10:18;;;;;;;798.83;385.55;;;;;;;;;;5065857;28;20028;-51
2023/07/09 02:12:44;;;;;;;793.25;384.13;;;;;;;;;;5066367;28;20096;-52
2023/07/09 02:15:09;;;;;;;795.00;387.40;;;;;;;;;;5065931;28;20042;-51
2023/07/09 02:17:35;;;;;;;798.25;388.75;;;;;;;;;;5066099;28;20029;-51
2023/07/09 02:20:00;;;;;;;800.63;394.20;;;;;;;;;;5069296;28;20463;-55
2023/07/09 02:22:25;;;;;;;798.55;391.67;;;;;;;;;;5086105;28;20032;-53
2023/07/09 02:24:52;;;;;;;791.65;387.73;;;;;;;;;;5086535;28;20098;-51
2023/07/09 02:27:19;;;;;;;797.40;396.40;;;;;;;;;;5085821;28;20495;-54
2023/07/09 02:29:44;;;;;;;793.15;384.02;;;;;;;;;;5086050;28;20022;-53
2023/07/09 02:32:12;;;;;;;790.13;377.40;;;;;;;;;;5086004;28;20516;-53
2023/07/09 02:34:37;;;;;;;786.78;372.70;;;;;;;;;;5085938;28;20071;-51
2023/07/09 02:37:03;;;;;;;789.95;372.10;;;;;;;;;;5073243;28;20086;-54
2023/07/09 02:39:28;;;;;;;792.50;380.23;;;;;;;;;;5065795;28;20202;-51
2023/07/09 02:41:54;;;;;;;794.38;391.70;;;;;;;;;;5065683;28;20078;-52
2023/07/09 02:44:19;;;;;;;780.35;362.65;;;;;;;;;;5065369;28;20174;-53
2023/07/09 02:46:45;;;;;;;785.10;359.45;;;;;;;;;;5066389;28;20032;-51
2023/07/09 02:49:11;;;;;;;780.28;360.75;;;;;;;;;;5066291;28;20457;-53
2023/07/09 02:51:36;;;;;;;782.80;359.38;;;;;;;;;;5065843;28;20040;-51
2023/07/09 02:54:02;;;;;;;785.33;360.60;;;;;;;;;;5065444;28;20045;-53
2023/07/09 02:56:28;;;;;;;779.17;362.67;;;;;;;;;;5066148;28;20035;-52
2023/07/09 02:58:53;;;;;;;783.78;364.63;;;;;;;;;;5066155;28;20024;-48
2023/07/09 03:01:24;;;;;;;776.03;348.23;;;;;;;;;;5066363;28;20036;-55
2023/07/09 03:03:50;;;;;;;769.13;346.70;;;;;;;;;;5065368;28;20032;-51
2023/07/09 03:06:16;;;;;;;763.67;340.42;;;;;;;;;;5062489;28;20119;-49
2023/07/09 03:08:41;;;;;;;769.20;346.27;;;;;;;;;;5063163;28;20024;-53
2023/07/09 03:11:10;;;;;;;764.25;340.48;;;;;;;;;;5063842;28;20111;-52
2023/07/09 03:13:36;;;;;;;;;;;;;;;;;;5065455;28;20028;-54
2023/07/09 03:16:01;;;;;;;778.50;352.20;;;;;;;;;;5064918;28;19927;-52
2023/07/09 03:18:26;;;;;;;757.60;320.92;;;;;;;;;;5064901;28;20078;-49
2023/07/09 03:20:51;;;;;;;757.47;319.33;;;;;;;;;;5064801;28;20024;-55
2023/07/09 03:23:17;;;;;;;747.92;316.17;;;;;;;;;;5064928;28;20021;-50
2023/07/09 03:25:43;;;;;;;772.97;342.77;;;;;;;;;;5064637;28;20400;-50
2023/07/09 03:28:08;;;;;;;771.10;353.83;;;;;;;;;;5064402;28;20024;-52
2023/07/09 03:30:33;;;;;;;759.13;328.50;;;;;;;;;;5064858;28;20024;-49
2023/07/09 03:33:00;;;;;;;768.53;336.10;;;;;;;;;;5046838;28;20157;-54
2023/07/09 03:35:25;;;;;;;757.30;332.00;;;;;;;;;;5029095;28;20032;-50
2023/07/09 03:37:50;;;;;;;766.58;349.70;;;;;;;;;;5064486;28;20013;-53
2023/07/09 03:40:20;;;;;;;775.63;364.33;;;;;;;;;;5064376;28;20107;-48
2023/07/09 03:42:45;;;;;;;784.97;366.73;;;;;;;;;;5064815;28;20027;-54
2023/07/09 03:45:11;;;;;;;789.25;378.70;;;;;;;;;;5064263;28;20790;-53
2023/07/09 03:47:36;;;;;;;787.97;364.55;;;;;;;;;;5064634;28;20020;-51
2023/07/09 03:50:01;;;;;;;791.20;365.52;;;;;;;;;;5064309;28;20655;-55
2023/07/09 03:52:26;;;;;;;786.83;373.27;;;;;;;;;;5064385;28;20054;-51
2023/07/09 03:54:52;;;;;;;789.22;365.30;;;;;;;;;;5046629;28;20029;-51
2023/07/09 03:57:17;;;;;;;786.17;378.20;;;;;;;;;;5065018;28;20059;-53
2023/07/09 03:59:42;;;;;;;791.67;372.45;;;;;;;;;;5064636;28;20027;-53
2023/07/09 04:02:08;;;;;;;792.05;378.35;;;;;;;;;;5045199;28;20330;-53
2023/07/09 04:04:33;;;;;;;800.47;388.05;;;;;;;;;;5064805;28;20025;-51
2023/07/09 04:06:58;;;;;;;794.85;396.40;;;;;;;;;;5064580;28;20127;-53
2023/07/09 04:09:23;;;;;;;796.72;394.85;;;;;;;;;;5064785;28;20024;-50
2023/07/09 04:11:49;;;;;;;799.38;396.73;;;;;;;;;;5064578;28;20687;-51
2023/07/09 04:14:14;;;;;;;794.95;404.23;;;;;;;;;;5064741;28;20032;-49
2023/07/09 04:16:39;;;;;;;802.67;412.35;;;;;;;;;;5064211;28;20472;-54
2023/07/09 04:19:04;;;;;;;797.45;411.52;;;;;;;;;;5068854;28;20525;-53
2023/07/09 04:21:30;;;;;;;804.45;426.17;;;;;;;;;;5085147;28;20016;-55
2023/07/09 04:23:55;;;;;;;809.03;447.67;;;;;;;;;;5085077;28;20020;-51
2023/07/09 04:26:23;;;;;;;824.22;484.10;;;;;;;;;;5084819;28;20451;-50
2023/07/09 04:28:48;;;;;;;831.60;499.05;;;;;;;;;;5084615;28;20024;-53
2023/07/09 04:31:13;;;;;;;827.85;505.50;;;;;;;;;;5085102;28;20051;-53
2023/07/09 04:33:39;;;;;;;832.40;533.25;;;;;;;;;;5084787;28;20316;-52
2023/07/09 04:36:06;;;;;;;832.10;534.35;;;;;;;;;;5072369;28;20043;-53
2023/07/09 04:38:31;;;;;;;847.10;562.75;;;;;;;;;;5064852;28;20017;-53
2023/07/09 04:40:57;;;;;;;851.65;596.50;;;;;;;;;;5065945;28;20591;-54
2023/07/09 04:43:22;;;;;;;849.70;590.05;;;;;;;;;;5064666;28;20468;-54
2023/07/09 04:45:47;;;;;;;857.35;612.65;;;;;;;;;;5064700;28;20033;-55
2023/07/09 04:48:13;;;;;;;864.10;640.72;;;;;;;;;;5064065;28;20020;-54
2023/07/09 04:50:40;;;;;;;866.25;643.03;;;;;;;;;;5063768;28;20025;-53
2023/07/09 04:53:05;;;;;;;872.97;669.78;;;;;;;;;;5063648;28;20174;-52
2023/07/09 04:55:31;;;;;;;882.63;682.83;;;;;;;;;;5063799;28;20106;-51
2023/07/09 04:57:57;;;;;;;871.00;667.10;;;;;;;;;;5064207;28;20364;-49
2023/07/09 05:00:22;;;;;;;877.55;685.15;;;;;;;;;;5063695;28;20021;-52
2023/07/09 05:02:47;;;;;;;888.47;697.45;;;;;;;;;;5063868;28;20076;-55
2023/07/09 05:05:13;;;;;;;889.45;710.28;;;;;;;;;;5027836;28;20040;-55
2023/07/09 05:07:38;;;;;;;891.72;724.80;;;;;;;;;;5066645;28;20519;-53
2023/07/09 05:10:04;;;;;;;892.00;726.25;;;;;;;;;;5067899;28;20025;-55
2023/07/09 05:12:30;;;;;;;900.13;743.25;;;;;;;;;;5068174;28;20025;-49
2023/07/09 05:14:56;;;;;;;907.35;763.20;;;;;;;;;;5068320;28;20039;-55
2023/07/09 05:17:22;;;;;;;906.63;758.50;;;;;;;;;;5068561;28;20063;-54
2023/07/09 05:19:47;;;;;;;909.65;769.88;;;;;;;;;;5067929;28;20052;-52
2023/07/09 05:22:12;;;;;;;909.95;779.58;;;;;;;;;;5068041;28;20052;-53
2023/07/09 05:24:37;;;;;;;913.10;788.30;;;;;;;;;;5068199;28;20032;-54
2023/07/09 05:27:03;;;;;;;910.17;784.13;;;;;;;;;;5032300;28;20043;-52
2023/07/09 05:29:28;;;;;;;919.80;802.33;;;;;;;;;;5067962;28;20047;-55
2023/07/09 05:31:53;;;;;;;921.25;805.10;;;;;;;;;;5067832;28;20100;-55
2023/07/09 05:34:19;;;;;;;913.90;803.00;;;;;;;;;;5048640;28;20028;-52
2023/07/09 05:36:44;;;;;;;921.57;812.63;;;;;;;;;;5067952;28;20107;-53
2023/07/09 05:39:10;;;;;;;918.03;815.17;;;;;;;;;;5067922;28;20955;-50
2023/07/09 05:41:35;;;;;;;932.25;829.42;;;;;;;;;;5067944;28;20021;-54
2023/07/09 05:44:00;;;;;;;937.55;833.95;;;;;;;;;;5067494;28;20024;-54
2023/07/09 05:46:25;;;;;;;942.97;839.72;;;;;;;;;;5067366;28;20033;-49
2023/07/09 05:48:51;;;;;;;930.45;826.05;;;;;;;;;;5047940;28;20127;-52
2023/07/09 05:51:16;;;;;;;942.47;838.90;;;;;;;;;;5067336;28;20456;-55
2023/07/09 05:53:41;;;;;;;946.03;842.35;;;;;;;;;;5066771;28;20116;-53
2023/07/09 05:56:07;;;;;;;946.08;842.50;;;;;;;;;;5067124;28;20081;-52
2023/07/09 05:58:32;;;;;;;948.67;844.75;;;;;;;;;;5067055;28;20119;-51
2023/07/09 06:00:58;;;;;;;945.05;842.40;;;;;;;;;;5031356;28;20078;-54
2023/07/09 06:03:26;;;;;;;949.83;845.30;;;;;;;;;;5067115;28;20048;-49
2023/07/09 06:05:52;;;;;;;959.45;854.78;;;;;;;;;;5067332;28;20240;-54
2023/07/09 06:08:18;;;;;;;963.25;858.25;;;;;;;;;;5067275;28;20317;-55
2023/07/09 06:10:53;;;;;;;983.80;877.22;;;;;;;;;;5066885;28;20017;-54
2023/07/09 06:13:19;;;;;;;989.75;883.22;;;;;;;;;;5067121;28;20031;-51
2023/07/09 06:15:45;;;;;;;980.22;873.88;;;;;;;;;;5066707;28;20241;-52
2023/07/09 06:18:10;;;;;;;984.47;876.90;;;;;;;;;;5065877;28;20229;-55
2023/07/09 06:20:36;;;;;;;981.63;875.77;;;;;;;;;;5067176;28;20032;-53
2023/07/09 06:23:02;;;;;;;959.08;853.58;;;;;;;;;;5066948;28;20253;-56
2023/07/09 06:25:27;;;;;;;961.47;857.88;;;;;;;;;;5067128;28;20025;-51
2023/07/09 06:27:52;;;;;;;984.60;879.83;;;;;;;;;;5066666;28;20029;-55
2023/07/09 06:30:19;;;;;;;973.33;869.23;;;;;;;;;;5066443;28;20740;-52
2023/07/09 06:32:44;;;;;;;997.85;891.53;;;;;;;;;;5047225;28;20254;-53
2023/07/09 06:35:10;;;;;;;975.47;869.90;;;;;;;;;;5066269;28;20055;-54
2023/07/09 06:37:35;;;;;;;970.88;866.70;;;;;;;;;;5066689;28;20070;-55
2023/07/09 06:40:02;;;;;;;973.00;868.75;;;;;;;;;;5066269;28;20357;-55
2023/07/09 06:42:27;;;;;;;976.28;872.67;;;;;;;;;;5048189;28;20031;-54
2023/07/09 06:44:52;;;;;;;989.05;884.25;;;;;;;;;;5066010;28;20024;-54
2023/07/09 06:47:18;;;;;;;979.28;875.55;;;;;;;;;;5066488;28;20347;-50
2023/07/09 06:49:43;;;;;;;980.00;875.45;;;;;;;;;;5067499;28;20039;-53
2023/07/09 06:52:08;;;;;;;992.55;888.65;;;;;;;;;;5072495;28;20508;-53
2023/07/09 06:54:33;;;;;;;991.13;886.55;;;;;;;;;;5065760;28;20035;-53
2023/07/09 06:56:59;;;;;;;983.40;879.20;;;;;;;;;;5030185;28;20040;-51
2023/07/09 06:59:24;;;;;;;995.47;890.78;;;;;;;;;;5066295;28;20025;-52
2023/07/09 07:01:49;;;;;;;997.03;891.70;;;;;;;;;;5065862;28;20031;-53
2023/07/09 07:04:15;;;;;;;998.33;892.60;;;;;;;;;;5065488;28;20336;-54
2023/07/09 07:06:40;;;;;;;998.20;892.80;;;;;;;;;;5029913;28;20476;-52
2023/07/09 07:09:06;;;;;;;995.85;890.75;;;;;;;;;;5066215;28;20031;-50
2023/07/09 07:11:31;;;;;;;1009.00;903.45;;;;;;;;;;5065974;28;20090;-52
2023/07/09 07:13:57;;;;;;;1013.08;906.83;;;;;;;;;;5065430;28;20052;-54
2023/07/09 07:16:22;;;;;;;1015.45;908.95;;;;;;;;;;5065520;28;20028;-55
2023/07/09 07:18:48;;;;;;;1012.33;905.92;;;;;;;;;;5029685;28;20100;-52
2023/07/09 07:21:13;;;;;;;1028.50;921.33;;;;;;;;;;5064941;28;20035;-50
2023/07/09 07:23:38;;;;;;;1028.75;921.42;;;;;;;;;;5065124;28;20142;-54
2023/07/09 07:26:04;;;;;;;1040.13;929.27;;;;;;;;;;5065398;28;20029;-53
2023/07/09 07:28:29;;;;;;;1042.00;933.67;;;;;;;;;;5065230;28;20256;-54
2023/07/09 07:31:02;;;;;;;1042.10;933.55;;;;;;;;;;5064513;28;20021;-55
2023/07/09 07:33:27;;;;;;;1057.82;948.28;;;;;;;;;;5065471;28;20028;-51
2023/07/09 07:35:52;;;;;;;1059.82;950.13;;;;;;;;;;5065238;28;20033;-54
2023/07/09 07:38:18;;;;;;;1068.72;958.58;;;;;;;;;;5029080;28;20514;-53
2023/07/09 07:40:46;;;;;;;1063.17;953.60;;;;;;;;;;5065714;28;20028;-55
2023/07/09 07:43:11;;;;;;;1071.90;961.80;;;;;;;;;;5065306;28;20249;-53
2023/07/09 07:45:40;;;;;;;1049.55;941.58;;;;;;;;;;5065268;28;20028;-53
2023/07/09 07:48:05;;;;;;;1059.88;950.83;;;;;;;;;;5064902;28;20031;-56
2023/07/09 07:50:30;;;;;;;1074.87;964.17;;;;;;;;;;5064693;28;20020;-54
2023/07/09 07:52:56;;;;;;;1083.05;971.78;;;;;;;;;;5064886;28;20635;-50
2023/07/09 07:55:21;;;;;;;1092.50;980.73;;;;;;;;;;5064825;28;20028;-55
2023/07/09 07:57:46;;;;;;;1083.70;972.83;;;;;;;;;;5065487;28;20020;-55
2023/07/09 08:00:12;;;;;;;1087.90;976.75;;;;;;;;;;5064960;28;20268;-55
2023/07/09 08:02:37;;;;;;;1085.97;975.03;;;;;;;;;;5064898;28;20209;-51
2023/07/09 08:05:03;;;;;;;1089.65;978.65;;;;;;;;;;5064893;28;20464;-55
2023/07/09 08:07:28;;;;;;;1079.72;969.35;;;;;;;;;;5064966;28;20016;-53
2023/07/09 08:09:53;;;;;;;1090.53;978.87;;;;;;;;;;5065000;28;20020;-56
2023/07/09 08:12:19;;;;;;;1088.70;977.13;;;;;;;;;;5045277;28;20261;-53
2023/07/09 08:14:45;;;;;;;1087.27;976.27;;;;;;;;;;5064596;28;20535;-53
2023/07/09 08:17:10;;;;;;;1095.30;983.63;;;;;;;;;;5064618;28;20365;-54
2023/07/09 08:19:48;;;;;;;1097.43;985.47;;;;;;;;;;5064656;28;20108;-55
2023/07/09 08:22:14;;;;;;;1089.97;978.60;;;;;;;;;;5064264;28;20444;-55
2023/07/09 08:24:39;;;;;;;1100.60;988.85;;;;;;;;;;5064456;28;20804;-54
2023/07/09 08:27:06;;;;;;;1092.70;981.70;;;;;;;;;;5065122;28;20039;-52
2023/07/09 08:29:31;;;;;;;1095.80;984.03;;;;;;;;;;5064520;28;20507;-55
2023/07/09 08:31:57;;;;;;;1093.75;982.05;;;;;;;;;;5064475;28;20017;-52
2023/07/09 08:34:22;;;;;;;1093.20;982.10;;;;;;;;;;5064177;28;20040;-52
2023/07/09 08:36:47;;;;;;;1083.73;973.23;;;;;;;;;;5064378;28;20476;-56
2023/07/09 08:39:15;;;;;;;1084.10;973.72;;;;;;;;;;5064245;28;20017;-52
2023/07/09 08:41:40;;;;;;;1092.32;981.58;;;;;;;;;;5046214;28;20020;-53
2023/07/09 08:44:05;;;;;;;1096.97;985.50;;;;;;;;;;5064448;28;20036;-53
2023/07/09 08:46:45;;;;;;;1088.03;977.10;;;;;;;;;;5063889;28;20028;-55
2023/07/09 08:49:20;;;;;;;1093.97;982.60;;;;;;;;;;5043967;28;20026;-53
2023/07/09 08:51:47;;;;;;;1086.80;976.13;;;;;;;;;;5062188;28;20063;-54
2023/07/09 08:54:38;;;;;;;1085.13;974.50;;;;;;;;;;5064063;28;20133;-54
2023/07/09 08:57:14;;;;;;;1079.03;969.08;;;;;;;;;;4981815;28;20518;-56
2023/07/09 08:59:40;;;;;;;1081.47;971.20;;;;;;;;;;4981938;28;20054;-52
2023/07/09 09:02:13;;;;;;;1078.72;968.78;;;;;;;;;;4981786;28;20434;-54
2023/07/09 09:04:39;;;;;;;1081.40;971.53;;;;;;;;;;4981816;28;20084;-50
2023/07/09 09:07:16;;;;;;;1078.65;968.83;;;;;;;;;;4981949;28;20034;-55
2023/07/09 09:09:49;;;;;;;1075.82;965.85;;;;;;;;;;4981714;28;20511;-55
2023/07/09 09:12:19;;;;;;;1073.97;964.28;;;;;;;;;;4981543;28;20026;-57
2023/07/09 09:14:56;;;;;;;1077.40;967.55;;;;;;;;;;4981735;28;20069;-51
2023/07/09 09:17:25;;;;;;;1072.00;962.47;;;;;;;;;;4982323;28;20485;-55
2023/07/09 09:19:53;;;;;;;1071.30;962.10;;;;;;;;;;4982012;28;20477;-54
2023/07/09 09:22:19;;;;;;;;;;;;;;;;;;5000827;28;20025;-57
2023/07/09 09:24:48;;;;;;;1079.13;969.10;;;;;;;;;;4992170;28;19906;-55
2023/07/09 09:27:13;;;;;;;;;;;;;;;;;;4982189;28;20121;-52
2023/07/09 09:29:38;;;;;;;1081.38;971.45;;;;;;;;;;4981676;28;20001;-55
2023/07/09 09:32:17;;;;;;;1088.40;978.17;;;;;;;;;;4981751;28;20018;-54
2023/07/09 09:34:43;;;;;;;1086.85;976.47;;;;;;;;;;5050505;28;20254;-52
2023/07/09 09:37:14;;;;;;;1077.23;967.73;;;;;;;;;;5063453;28;20036;-53
2023/07/09 09:39:39;;;;;;;1076.38;966.58;;;;;;;;;;5063392;28;20020;-54
2023/07/09 09:42:10;;;;;;;1076.27;966.40;;;;;;;;;;5063074;28;20021;-54
2023/07/09 09:44:35;;;;;;;1079.63;969.15;;;;;;;;;;5063419;28;20249;-52
2023/07/09 09:47:00;;;;;;;1087.27;977.03;;;;;;;;;;5064128;28;20083;-55
2023/07/09 09:49:26;;;;;;;955.87;856.67;;;;;;;;;;5063075;28;20680;-54
2023/07/09 09:51:51;;;;;;;1010.60;908.17;;;;;;;;;;5063134;28;20253;-56
2023/07/09 09:54:21;;;;;;;1071.80;967.38;;;;;;;;;;5066411;28;20061;-56
2023/07/09 09:56:48;;;;;;;211.30;170.55;;;;;;;;;;5066700;28;20071;-54
2023/07/09 09:59:17;;;;;;;5.80;2.33;;;;;;;;;;5066829;28;20049;-55
2023/07/09 10:01:42;;;;;;;6.65;2.38;;;;;;;;;;5067137;28;20030;-54
2023/07/09 10:04:10;;;;;;;3.67;2.30;;;;;;;;;;5067027;28;20033;-57
2023/07/09 10:06:37;;;;;;;4.85;2.80;;;;;;;;;;5066634;28;20094;-55
2023/07/09 10:09:09;;;;;;;7.90;2.63;;;;;;;;;;5067362;28;20082;-56
2023/07/09 10:11:40;;;;;;;4.47;2.78;;;;;;;;;;5065946;28;20032;-53
2023/07/09 10:14:16;;;;;;;6.88;2.75;;;;;;;;;;5066436;28;20475;-52
2023/07/09 10:16:44;;;;;;;4.93;2.83;;;;;;;;;;5066255;28;20063;-53
2023/07/09 10:19:09;;;;;;;;;;;;;;;;;;5066441;28;20066;-53
2023/07/09 10:21:58;;;;;;;11.43;2.88;;;;;;;;;;5066260;28;19908;-56
2023/07/09 10:24:29;;;;;;;5.95;2.90;;;;;;;;;;5023192;28;20029;-53
2023/07/09 10:27:06;;;;;;;4.43;2.40;;;;;;;;;;5023137;28;20030;-53
2023/07/09 10:29:46;;;;;;;5.95;2.55;;;;;;;;;;5023420;28;20472;-54
2023/07/09 10:32:14;;;;;;;4.07;2.47;;;;;;;;;;5023223;28;20160;-55
2023/07/09 10:34:46;;;;;;;5.30;2.45;;;;;;;;;;5023261;28;20108;-53
2023/07/09 10:37:11;;;;;;;5.10;2.95;;;;;;;;;;5023428;28;20116;-55
2023/07/09 10:39:38;;;;;;;4.60;2.70;;;;;;;;;;5023480;28;20118;-54
2023/07/09 10:42:04;;;;;;;5.80;2.90;;;;;;;;;;5023627;28;20037;-54
2023/07/09 10:44:41;;;;;;;6.28;2.70;;;;;;;;;;5023431;28;20635;-52
2023/07/09 10:47:12;;;;;;;5.05;2.50;;;;;;;;;;5023586;28;20026;-54
2023/07/09 10:49:38;;;;;;;5.63;2.65;;;;;;;;;;5023039;28;20552;-53
2023/07/09 10:52:27;;;;;;;7.43;2.88;;;;;;;;;;5023179;28;20025;-52
2023/07/09 10:54:52;;;;;;;4.43;2.63;;;;;;;;;;4945303;29;20039;-55
2023/07/09 10:57:25;;;;;;;6.10;2.87;;;;;;;;;;4945004;29;20039;-54
2023/07/09 10:59:50;;;;;;;7.78;2.45;;;;;;;;;;4945083;29;20035;-55
2023/07/09 11:02:16;;;;;;;5.13;2.50;;;;;;;;;;4916194;28;20063;-50
2023/07/09 11:04:46;;;;;;;43.33;14.20;;;;;;;;;;4964306;28;20109;-56
2023/07/09 11:07:12;;;;;;;3.88;2.65;;;;;;;;;;4964298;28;20031;-56
2023/07/09 11:09:43;;;;;;;4.63;2.63;;;;;;;;;;4964578;28;20356;-54
2023/07/09 11:12:11;;;;;;;6.03;2.25;;;;;;;;;;4964308;28;20110;-55
2023/07/09 11:14:43;;;;;;;2.75;2.08;;;;;;;;;;4964122;28;20064;-54
2023/07/09 11:17:14;;;;;;;6.65;2.30;;;;;;;;;;4964570;28;20034;-52
2023/07/09 11:19:43;;;;;;;7.20;2.70;;;;;;;;;;4964164;28;20043;-55
2023/07/09 11:22:19;;;;;;;4.15;2.50;;;;;;;;;;4947754;28;20026;-54
2023/07/09 11:24:46;;;;;;;19.90;3.30;;;;;;;;;;4963739;28;20038;-51
2023/07/09 11:27:21;;;;;;;5.32;2.50;;;;;;;;;;4963849;28;20054;-54
2023/07/09 11:29:48;;;;;;;7.60;2.78;;;;;;;;;;4963866;28;20056;-54
2023/07/09 11:32:21;;;;;;;4.43;2.45;;;;;;;;;;5027081;28;20054;-50
2023/07/09 11:34:46;;;;;;;3.75;2.45;;;;;;;;;;5065399;28;20020;-53
2023/07/09 11:37:12;;;;;;;5.60;2.50;;;;;;;;;;5047128;28;20476;-54
2023/07/09 11:39:38;;;;;;;5.65;2.42;;;;;;;;;;5047315;28;20116;-51
2023/07/09 11:42:03;;;;;;;4.18;2.55;;;;;;;;;;5065488;28;20025;-55
2023/07/09 11:44:30;;;;;;;6.55;2.65;;;;;;;;;;5065306;28;20020;-55
2023/07/09 11:47:11;;;;;;;4.70;2.50;;;;;;;;;;5065607;28;20028;-53
2023/07/09 11:49:58;;;;;;;2.50;1.75;;;;;;;;;;5065124;28;20048;-54
2023/07/09 11:52:46;;;;;;;6.32;2.95;;;;;;;;;;5065092;28;20077;-52
2023/07/09 11:55:28;;;;;;;4.88;2.80;;;;;;;;;;4982873;28;20413;-52
2023/07/09 11:57:58;;;;;;;4.78;2.67;;;;;;;;;;4982568;28;20066;-53
2023/07/09 12:00:26;;;;;;;3.60;2.53;;;;;;;;;;4982973;28;20041;-53
2023/07/09 12:02:51;;;;;;;5.07;2.67;;;;;;;;;;4982948;28;20030;-53
2023/07/09 12:05:22;;;;;;;4.85;2.30;;;;;;;;;;4983028;28;20576;-52
2023/07/09 12:07:47;;;;;;;9.05;2.80;;;;;;;;;;4982753;28;20023;-52
2023/07/09 12:10:20;;;;;;;3.30;2.23;;;;;;;;;;4982786;28;20548;-55
2023/07/09 12:12:45;;;;;;;4.85;2.97;;;;;;;;;;4982677;28;20260;-53
2023/07/09 12:15:21;;;;;;;5.00;2.50;;;;;;;;;;4981948;28;20037;-55
2023/07/09 12:17:57;;;;;;;4.82;2.15;;;;;;;;;;4982454;28;20498;-55
2023/07/09 12:20:22;;;;;;;7.25;2.88;;;;;;;;;;4985570;28;20461;-49
2023/07/09 12:22:47;;;;;;;4.75;2.35;;;;;;;;;;5002360;28;20049;-55
2023/07/09 12:25:19;;;;;;;5.83;2.43;;;;;;;;;;4985537;28;20105;-53
2023/07/09 12:27:44;;;;;;;3.45;2.40;;;;;;;;;;5002199;28;20247;-51
2023/07/09 12:30:13;;;;;;;5.63;2.60;;;;;;;;;;5001877;28;20489;-54
2023/07/09 12:32:46;;;;;;;4.03;2.50;;;;;;;;;;5026375;28;20025;-53
2023/07/09 12:35:12;;;;;;;4.78;2.88;;;;;;;;;;5044876;28;20047;-51
2023/07/09 12:37:38;;;;;;;6.63;2.20;;;;;;;;;;5044611;28;20384;-53
2023/07/09 12:40:04;;;;;;;8.60;2.50;;;;;;;;;;5044431;28;20021;-52
2023/07/09 12:42:31;;;;;;;3.10;2.05;;;;;;;;;;5044512;28;20031;-54
2023/07/09 12:44:57;;;;;;;6.30;2.78;;;;;;;;;;5044704;28;20385;-54
2023/07/09 12:47:24;;;;;;;8.07;2.40;;;;;;;;;;5025090;28;20052;-50
2023/07/09 12:49:51;;;;;;;6.67;3.00;;;;;;;;;;5062609;28;20062;-53
2023/07/09 12:52:21;;;;;;;5.03;2.70;;;;;;;;;;5064302;28;20090;-57
2023/07/09 12:54:56;;;;;;;3.38;2.28;;;;;;;;;;5064014;28;20044;-53
2023/07/09 12:57:21;;;;;;;7.47;2.88;;;;;;;;;;5064140;28;20021;-52
2023/07/09 12:59:47;;;;;;;6.40;2.83;;;;;;;;;;5063941;28;20031;-53
2023/07/09 13:02:18;;;;;;;4.75;2.45;;;;;;;;;;5064235;28;20021;-50
2023/07/09 13:04:43;;;;;;;4.82;2.78;;;;;;;;;;5064098;28;20093;-50
2023/07/09 13:07:21;;;;;;;6.93;2.72;;;;;;;;;;5063560;28;20054;-56
2023/07/09 13:09:53;;;;;;;4.20;2.67;;;;;;;;;;5064544;28;20060;-54
2023/07/09 13:12:18;;;;;;;5.03;2.80;;;;;;;;;;5063367;28;20476;-52
2023/07/09 13:14:52;;;;;;;8.15;2.53;;;;;;;;;;5064273;28;20067;-55
2023/07/09 13:17:17;;;;;;;5.35;2.50;;;;;;;;;;5062332;28;20078;-54
2023/07/09 13:19:42;;;;;;;12.13;3.90;;;;;;;;;;5064354;28;20029;-56
2023/07/09 13:22:11;;;;;;;5.90;2.77;;;;;;;;;;5063231;28;20028;-56
2023/07/09 13:24:36;;;;;;;3.78;2.65;;;;;;;;;;5064992;28;20067;-54
2023/07/09 13:27:02;;;;;;;4.20;2.80;;;;;;;;;;5062219;28;20418;-53
2023/07/09 13:29:28;;;;;;;4.93;3.00;;;;;;;;;;5054987;28;20109;-55
2023/07/09 13:31:53;;;;;;;10.88;2.88;;;;;;;;;;5066649;28;20020;-55
2023/07/09 13:34:26;;;;;;;4.13;2.63;;;;;;;;;;5067083;28;20446;-52
2023/07/09 13:36:53;;;;;;;6.95;2.47;;;;;;;;;;5066341;28;20140;-53
2023/07/09 13:39:19;;;;;;;25.33;3.35;;;;;;;;;;5067084;28;20040;-53
2023/07/09 13:41:45;;;;;;;4.20;2.53;;;;;;;;;;5066845;28;20213;-54
2023/07/09 13:44:30;;;;;;;5.15;2.70;;;;;;;;;;5067453;28;20028;-54
2023/07/09 13:46:56;;;;;;;6.90;2.67;;;;;;;;;;5066720;28;20020;-53
2023/07/09 13:49:22;;;;;;;4.22;2.20;;;;;;;;;;5066739;28;20043;-49
2023/07/09 13:51:49;;;;;;;7.22;2.88;;;;;;;;;;5064864;28;20025;-52
2023/07/09 13:54:14;;;;;;;6.47;2.83;;;;;;;;;;5066743;28;20060;-52
2023/07/09 13:56:40;;;;;;;3.57;2.57;;;;;;;;;;5066771;28;20460;-53
2023/07/09 13:59:11;;;;;;;6.07;2.50;;;;;;;;;;5067415;28;20055;-53
2023/07/09 14:01:36;;;;;;;6.03;3.00;;;;;;;;;;5066705;28;20450;-55
2023/07/09 14:04:01;;;;;;;4.40;2.63;;;;;;;;;;5066230;28;20108;-51
2023/07/09 14:06:27;;;;;;;7.20;3.00;;;;;;;;;;5066699;28;20044;-55